createdAt,value
2016-12-20T08:32:36.441Z,17.98
2016-12-20T08:33:09.442Z,18.03
2016-12-20T08:33:41.933Z,18.01
2016-12-20T08:34:14.265Z,18.02
2016-12-20T08:34:46.584Z,17.95
2016-12-20T08:35:18.935Z,17.99
2016-12-20T08:35:51.289Z,17.98
2016-12-20T08:36:23.588Z,17.96
2016-12-20T08:36:57.086Z,18.02
2016-12-20T08:37:30.535Z,17.92
2016-12-20T08:38:02.820Z,17.95
2016-12-20T08:38:35.168Z,18.03
2016-12-20T08:39:07.470Z,17.98
2016-12-20T08:39:39.822Z,18.03
2016-12-20T08:40:12.167Z,18.02
2016-12-20T08:40:44.543Z,18.05
2016-12-20T08:41:16.911Z,18.05
2016-12-20T08:41:49.246Z,18.06
2016-12-20T08:42:21.608Z,18.06
2016-12-20T08:42:53.969Z,18.05
2016-12-20T08:43:26.276Z,18.05
2016-12-20T08:43:58.638Z,18.08
2016-12-20T08:44:31.142Z,18.11
2016-12-20T08:45:04.948Z,18.05
2016-12-20T08:45:38.783Z,18.06
2016-12-20T08:46:12.814Z,18.02
2016-12-20T08:46:45.288Z,18.14
2016-12-20T08:47:19.521Z,18.06
2016-12-20T08:47:51.826Z,18.11
2016-12-20T08:48:24.154Z,18.13
2016-12-20T08:48:56.472Z,18.02
2016-12-20T08:49:30.267Z,18.1
2016-12-20T08:50:02.593Z,18.16
2016-12-20T08:50:34.904Z,18.03
2016-12-20T08:51:08.617Z,18.01
2016-12-20T08:51:42.997Z,18.03
2016-12-20T08:52:16.018Z,18.06
2016-12-20T08:52:48.326Z,18.14
2016-12-20T08:53:21.517Z,18.03
2016-12-20T08:53:54.527Z,18.19
2016-12-20T08:55:46.161Z,18.13
2016-12-20T08:56:18.488Z,18.17
2016-12-20T08:56:50.806Z,18.1
2016-12-20T08:57:23.103Z,18.2
2016-12-20T08:57:55.468Z,18.16
2016-12-20T08:58:27.783Z,18.19
2016-12-20T08:59:00.106Z,18.13
2016-12-20T08:59:32.415Z,18.19
2016-12-20T09:00:04.719Z,18.21
2016-12-20T09:00:37.024Z,18.2
2016-12-20T09:01:09.349Z,18.13
2016-12-20T09:01:41.681Z,18.16
2016-12-20T09:02:14.008Z,18.2
2016-12-20T09:02:46.317Z,18.19
2016-12-20T09:03:18.633Z,18.19
2016-12-20T09:03:50.939Z,18.26
2016-12-20T09:04:23.237Z,18.17
2016-12-20T09:04:55.580Z,18.19
2016-12-20T09:05:28.998Z,18.19
2016-12-20T09:06:01.319Z,18.2
2016-12-20T09:06:34.523Z,18.16
2016-12-20T09:07:06.812Z,18.17
2016-12-20T09:07:39.129Z,18.2
2016-12-20T09:08:11.440Z,18.19
2016-12-20T09:08:44.450Z,18.2
2016-12-20T09:09:23.049Z,18.21
2016-12-20T09:10:10.030Z,18.16
2016-12-20T09:10:56.537Z,18.17
2016-12-20T09:11:41.027Z,18.2
2016-12-20T09:12:27.052Z,18.14
2016-12-20T09:13:13.537Z,18.19
2016-12-20T09:13:52.528Z,18.17
2016-12-20T09:14:35.050Z,18.32
2016-12-20T09:15:23.535Z,18.27
2016-12-20T09:16:02.571Z,18.31
2016-12-20T09:16:42.699Z,18.27
2016-12-20T09:17:26.046Z,18.34
2016-12-20T09:18:13.527Z,18.27
2016-12-20T09:18:54.046Z,18.24
2016-12-20T09:19:36.565Z,18.31
2016-12-20T09:20:21.796Z,18.31
2016-12-20T09:21:01.555Z,18.34
2016-12-20T09:21:43.031Z,18.32
2016-12-20T09:22:27.036Z,18.34
2016-12-20T09:23:14.053Z,18.32
2016-12-20T09:23:56.536Z,18.31
2016-12-20T09:24:35.038Z,18.36
2016-12-20T09:25:12.048Z,18.39
2016-12-20T09:25:46.114Z,18.32
2016-12-20T09:26:19.544Z,18.29
2016-12-20T09:27:01.551Z,18.26
2016-12-20T09:27:41.236Z,18.29
2016-12-20T09:28:17.038Z,18.34
2016-12-20T09:28:53.575Z,18.35
2016-12-20T09:29:30.134Z,18.39
2016-12-20T09:30:15.535Z,18.34
2016-12-20T09:30:53.164Z,18.34
2016-12-20T09:31:26.509Z,18.34
2016-12-20T09:31:59.055Z,18.35
2016-12-20T09:32:31.588Z,18.41
2016-12-20T09:33:06.062Z,18.34
2016-12-20T09:33:42.243Z,18.32
2016-12-20T09:34:15.782Z,18.31
2016-12-20T09:35:08.058Z,18.29
2016-12-20T09:35:44.043Z,18.39
2016-12-20T09:36:22.059Z,18.34
2016-12-20T09:36:58.387Z,18.32
2016-12-20T09:37:32.109Z,18.44
2016-12-20T09:38:06.086Z,18.45
2016-12-20T09:38:40.205Z,18.34
2016-12-20T09:39:13.852Z,18.47
2016-12-20T09:39:47.673Z,18.45
2016-12-20T09:40:21.039Z,18.32
2016-12-20T09:40:54.548Z,18.34
2016-12-20T09:41:31.548Z,18.41
2016-12-20T09:42:12.066Z,18.36
2016-12-20T09:42:50.083Z,18.39
2016-12-20T09:43:23.512Z,18.36
2016-12-20T09:43:58.247Z,18.39
2016-12-20T09:44:31.546Z,18.36
2016-12-20T09:45:06.046Z,18.39
2016-12-20T09:45:43.937Z,18.39
2016-12-20T09:46:20.058Z,18.38
2016-12-20T09:46:55.725Z,18.41
2016-12-20T09:47:31.205Z,18.35
2016-12-20T09:48:05.815Z,18.38
2016-12-20T09:48:40.148Z,18.34
2016-12-20T09:49:14.514Z,18.36
2016-12-20T09:49:46.894Z,18.44
2016-12-20T09:50:19.985Z,18.45
2016-12-20T09:50:54.129Z,18.44
2016-12-20T09:51:26.657Z,18.44
2016-12-20T09:51:59.560Z,18.41
2016-12-20T09:52:33.052Z,18.38
2016-12-20T09:53:07.900Z,18.42
2016-12-20T09:53:41.479Z,18.45
2016-12-20T09:54:16.561Z,18.42
2016-12-20T09:54:51.547Z,18.49
2016-12-20T09:55:25.160Z,18.44
2016-12-20T09:56:01.126Z,18.51
2016-12-20T09:56:44.564Z,18.42
2016-12-20T09:57:18.335Z,18.44
2016-12-20T09:57:50.714Z,18.44
2016-12-20T09:58:24.180Z,18.45
2016-12-20T09:58:56.563Z,18.51
2016-12-20T09:59:28.879Z,18.44
2016-12-20T10:00:01.296Z,18.44
2016-12-20T10:00:33.600Z,18.44
2016-12-20T10:01:06.051Z,18.47
2016-12-20T10:01:38.891Z,18.45
2016-12-20T10:02:11.963Z,18.51
2016-12-20T10:02:44.709Z,18.45
2016-12-20T10:03:20.032Z,18.51
2016-12-20T10:03:54.068Z,18.5
2016-12-20T10:04:27.548Z,18.51
2016-12-20T10:05:01.465Z,18.5
2016-12-20T10:05:35.058Z,18.47
2016-12-20T10:06:09.238Z,18.51
2016-12-20T10:06:42.567Z,18.54
2016-12-20T10:07:16.049Z,18.45
2016-12-20T10:07:48.654Z,18.5
2016-12-20T10:08:27.055Z,18.53
2016-12-20T10:09:02.566Z,18.54
2016-12-20T10:09:35.170Z,18.53
2016-12-20T10:10:09.131Z,18.5
2016-12-20T10:10:44.129Z,18.53
2016-12-20T10:11:16.627Z,18.51
2016-12-20T10:11:50.055Z,18.51
2016-12-20T10:12:22.479Z,18.5
2016-12-20T10:12:56.550Z,18.54
2016-12-20T10:13:30.054Z,18.5
2016-12-20T10:14:05.050Z,18.53
2016-12-20T10:14:38.034Z,18.54
2016-12-20T10:15:12.559Z,18.53
2016-12-20T10:15:49.671Z,18.53
2016-12-20T10:16:22.360Z,18.53
2016-12-20T10:16:55.547Z,18.49
2016-12-20T10:17:27.928Z,18.56
2016-12-20T10:18:02.061Z,18.47
2016-12-20T10:18:36.039Z,18.56
2016-12-20T10:19:08.355Z,18.57
2016-12-20T10:19:40.675Z,18.54
2016-12-20T10:20:13.040Z,18.6
2016-12-20T10:20:45.622Z,18.49
2016-12-20T10:21:19.150Z,18.54
2016-12-20T10:21:51.815Z,18.53
2016-12-20T10:22:24.522Z,18.57
2016-12-20T10:22:56.870Z,18.56
2016-12-20T10:23:29.282Z,18.51
2016-12-20T10:24:01.595Z,18.56
2016-12-20T10:24:33.933Z,18.61
2016-12-20T10:25:06.378Z,18.54
2016-12-20T10:25:38.681Z,18.5
2016-12-20T10:26:11.045Z,18.56
2016-12-20T10:26:43.375Z,18.54
2016-12-20T10:27:15.702Z,18.54
2016-12-20T10:27:48.007Z,18.61
2016-12-20T10:28:20.322Z,18.57
2016-12-20T10:28:52.660Z,18.56
2016-12-20T10:29:24.969Z,18.57
2016-12-20T10:29:57.275Z,18.54
2016-12-20T10:30:29.617Z,18.56
2016-12-20T10:31:01.925Z,18.57
2016-12-20T10:31:34.258Z,18.54
2016-12-20T10:32:07.187Z,18.54
2016-12-20T10:32:40.537Z,18.53
2016-12-20T10:33:13.508Z,18.56
2016-12-20T10:33:46.464Z,18.59
2016-12-20T10:34:18.814Z,18.57
2016-12-20T10:34:51.182Z,18.57
2016-12-20T10:35:23.542Z,18.53
2016-12-20T10:35:55.867Z,18.57
2016-12-20T10:36:28.177Z,18.56
2016-12-20T10:37:01.107Z,18.54
2016-12-20T10:37:33.984Z,18.56
2016-12-20T10:38:06.304Z,18.57
2016-12-20T10:38:38.639Z,18.59
2016-12-20T10:39:10.968Z,18.6
2016-12-20T10:39:43.286Z,18.53
2016-12-20T10:40:15.606Z,18.57
2016-12-20T10:40:47.940Z,18.61
2016-12-20T10:41:20.295Z,18.6
2016-12-20T10:41:52.625Z,18.51
2016-12-20T10:42:24.943Z,18.56
2016-12-20T10:42:57.277Z,18.56
2016-12-20T10:43:29.569Z,18.59
2016-12-20T10:44:01.889Z,18.59
2016-12-20T10:44:34.187Z,18.6
2016-12-20T10:45:06.528Z,18.63
2016-12-20T10:45:38.841Z,18.57
2016-12-20T10:46:11.149Z,18.65
2016-12-20T10:46:43.466Z,18.61
2016-12-20T10:47:15.799Z,18.59
2016-12-20T10:47:48.146Z,18.63
2016-12-20T10:48:20.512Z,18.61
2016-12-20T10:48:52.848Z,18.65
2016-12-20T10:49:25.173Z,18.59
2016-12-20T10:49:57.502Z,18.65
2016-12-20T10:50:30.565Z,18.61
2016-12-20T10:51:03.221Z,18.57
2016-12-20T10:51:35.536Z,18.65
2016-12-20T10:52:07.903Z,18.6
2016-12-20T10:52:40.280Z,18.65
2016-12-20T10:53:12.705Z,18.63
2016-12-20T10:53:45.113Z,18.61
2016-12-20T10:54:22.591Z,18.61
2016-12-20T10:54:57.079Z,18.63
2016-12-20T10:55:32.575Z,18.65
2016-12-20T10:56:13.074Z,18.61
2016-12-20T10:56:49.524Z,18.66
2016-12-20T10:57:23.013Z,18.61
2016-12-20T10:57:58.836Z,18.63
2016-12-20T10:58:33.115Z,18.6
2016-12-20T10:59:07.588Z,18.68
2016-12-20T10:59:42.553Z,18.65
2016-12-20T11:00:19.934Z,18.69
2016-12-20T11:00:52.273Z,18.61
2016-12-20T11:01:24.636Z,18.65
2016-12-20T11:01:59.084Z,18.68
2016-12-20T11:02:32.288Z,18.65
2016-12-20T11:03:09.570Z,18.68
2016-12-20T11:03:51.076Z,18.63
2016-12-20T11:04:32.573Z,18.72
2016-12-20T11:07:05.570Z,18.61
2016-12-20T11:07:44.091Z,18.63
2016-12-20T11:08:20.693Z,18.71
2016-12-20T11:08:55.583Z,18.71
2016-12-20T11:09:30.299Z,18.68
2016-12-20T11:10:03.488Z,18.66
2016-12-20T11:10:36.225Z,18.68
2016-12-20T11:11:10.080Z,18.72
2016-12-20T11:11:44.059Z,18.63
2016-12-20T11:12:18.573Z,18.69
2016-12-20T11:12:56.284Z,18.65
2016-12-20T11:13:31.637Z,18.65
2016-12-20T11:14:11.863Z,18.66
2016-12-20T11:14:48.571Z,18.72
2016-12-20T11:15:20.989Z,18.68
2016-12-20T11:15:56.103Z,18.68
2016-12-20T11:16:32.635Z,18.75
2016-12-20T11:17:10.090Z,18.71
2016-12-20T11:17:45.588Z,18.71
2016-12-20T11:18:26.834Z,18.71
2016-12-20T11:19:04.103Z,18.69
2016-12-20T11:19:48.087Z,18.75
2016-12-20T11:20:27.777Z,18.66
2016-12-20T11:21:09.270Z,18.71
2016-12-20T11:21:46.084Z,18.69
2016-12-20T11:22:21.119Z,18.69
2016-12-20T11:22:54.806Z,18.69
2016-12-20T11:23:32.590Z,18.66
2016-12-20T11:24:10.596Z,18.66
2016-12-20T11:24:54.934Z,18.68
2016-12-20T11:25:32.578Z,18.65
2016-12-20T11:26:09.614Z,18.68
2016-12-20T11:26:51.584Z,18.72
2016-12-20T11:27:28.085Z,18.74
2016-12-20T11:28:07.094Z,18.71
2016-12-20T11:28:43.839Z,18.66
2016-12-20T11:29:23.594Z,18.66
2016-12-20T11:29:57.234Z,18.71
2016-12-20T11:30:39.609Z,18.69
2016-12-20T11:31:16.381Z,18.66
2016-12-20T11:31:58.585Z,18.66
2016-12-20T11:32:31.887Z,18.71
2016-12-20T11:33:08.216Z,18.71
2016-12-20T11:33:43.244Z,18.74
2016-12-20T11:34:19.205Z,18.69
2016-12-20T11:34:57.948Z,18.72
2016-12-20T11:35:33.040Z,18.71
2016-12-20T11:36:06.265Z,18.72
2016-12-20T11:36:39.915Z,18.69
2016-12-20T11:37:14.583Z,18.69
2016-12-20T11:37:49.050Z,18.76
2016-12-20T11:38:26.518Z,18.71
2016-12-20T11:39:00.747Z,18.72
2016-12-20T11:39:35.825Z,18.79
2016-12-20T11:40:09.592Z,18.69
2016-12-20T11:40:42.784Z,18.66
2016-12-20T11:41:16.111Z,18.81
2016-12-20T11:41:50.669Z,18.81
2016-12-20T11:42:27.046Z,18.72
2016-12-20T11:43:02.425Z,18.86
2016-12-20T11:43:38.101Z,18.82
2016-12-20T11:44:12.615Z,18.74
2016-12-20T11:44:55.125Z,18.78
2016-12-20T11:45:44.602Z,18.72
2016-12-20T11:46:26.103Z,18.76
2016-12-20T11:47:10.600Z,18.81
2016-12-20T11:47:49.108Z,18.78
2016-12-20T11:48:27.086Z,18.82
2016-12-20T11:49:04.595Z,18.84
2016-12-20T11:49:36.973Z,18.79
2016-12-20T11:50:11.309Z,18.71
2016-12-20T11:50:45.943Z,18.66
2016-12-20T11:51:24.086Z,18.74
2016-12-20T11:51:59.593Z,18.74
2016-12-20T11:52:38.365Z,18.75
2016-12-20T11:53:12.675Z,18.74
2016-12-20T11:53:47.099Z,18.72
2016-12-20T11:54:23.104Z,18.66
2016-12-20T11:55:01.617Z,18.74
2016-12-20T11:55:45.104Z,18.81
2016-12-20T11:56:33.615Z,18.81
2016-12-20T11:57:11.588Z,18.81
2016-12-20T11:58:00.621Z,18.71
2016-12-20T11:58:39.115Z,18.63
2016-12-20T11:59:18.105Z,18.66
2016-12-20T12:00:00.609Z,18.71
2016-12-20T12:00:39.294Z,18.68
2016-12-20T12:01:14.607Z,18.84
2016-12-20T12:01:50.711Z,18.69
2016-12-20T12:02:26.217Z,18.71
2016-12-20T12:03:01.007Z,18.65
2016-12-20T12:03:39.182Z,18.75
2016-12-20T12:04:13.119Z,18.78
2016-12-20T12:04:46.680Z,18.75
2016-12-20T12:05:26.119Z,18.79
2016-12-20T12:06:08.101Z,18.68
2016-12-20T12:06:44.342Z,18.72
2016-12-20T12:07:16.902Z,18.81
2016-12-20T12:07:49.306Z,18.65
2016-12-20T12:08:21.612Z,18.69
2016-12-20T12:08:53.902Z,18.74
2016-12-20T12:09:26.226Z,18.74
2016-12-20T12:09:58.578Z,18.68
2016-12-20T12:10:30.857Z,18.75
2016-12-20T12:11:03.170Z,18.79
2016-12-20T12:11:35.455Z,18.65
2016-12-20T12:12:07.745Z,18.68
2016-12-20T12:12:40.040Z,18.71
2016-12-20T12:13:12.326Z,18.82
2016-12-20T12:13:44.634Z,18.68
2016-12-20T12:14:16.920Z,18.65
2016-12-20T12:14:49.225Z,18.74
2016-12-20T12:15:21.525Z,18.63
2016-12-20T12:15:53.829Z,18.69
2016-12-20T12:16:26.091Z,18.72
